sensor_id;sensor_type;location;lat;lon;timestamp;pressure;altitude;pressure_sealevel;temperature;humidity
22605;BME280;11469;49.024;8.246;2023-08-12T00:00:41;100551.81;;;19.82;100.00
22605;BME280;11469;49.024;8.246;2023-08-12T00:03:06;100556.66;;;19.85;100.00
22605;BME280;11469;49.024;8.246;2023-08-12T00:05:32;100555.09;;;19.80;100.00
22605;BME280;11469;49.024;8.246;2023-08-12T00:07:58;100556.84;;;19.67;100.00
22605;BME280;11469;49.024;8.246;2023-08-12T00:10:23;100549.13;;;19.68;100.00
22605;BME280;11469;49.024;8.246;2023-08-12T00:12:49;100546.72;;;19.63;100.00
22605;BME280;11469;49.024;8.246;2023-08-12T00:15:14;100538.97;;;19.67;100.00
22605;BME280;11469;49.024;8.246;2023-08-12T00:17:40;100548.25;;;19.74;100.00
22605;BME280;11469;49.024;8.246;2023-08-12T00:20:07;100542.13;;;19.76;100.00
22605;BME280;11469;49.024;8.246;2023-08-12T00:22:34;100540.03;;;19.83;100.00
22605;BME280;11469;49.024;8.246;2023-08-12T00:25:00;100529.81;;;19.86;100.00
22605;BME280;11469;49.024;8.246;2023-08-12T00:27:26;100525.72;;;19.91;100.00
22605;BME280;11469;49.024;8.246;2023-08-12T00:29:51;100525.69;;;19.94;100.00
22605;BME280;11469;49.024;8.246;2023-08-12T00:32:16;100517.50;;;20.00;100.00
22605;BME280;11469;49.024;8.246;2023-08-12T00:34:42;100509.22;;;20.12;100.00
22605;BME280;11469;49.024;8.246;2023-08-12T00:37:07;100510.97;;;20.03;100.00
22605;BME280;11469;49.024;8.246;2023-08-12T00:39:33;100511.38;;;20.01;100.00
22605;BME280;11469;49.024;8.246;2023-08-12T00:41:58;100517.41;;;20.07;100.00
22605;BME280;11469;49.024;8.246;2023-08-12T00:44:24;100518.59;;;20.09;100.00
22605;BME280;11469;49.024;8.246;2023-08-12T00:46:49;100518.66;;;20.06;100.00
22605;BME280;11469;49.024;8.246;2023-08-12T00:49:16;100517.06;;;20.01;100.00
22605;BME280;11469;49.024;8.246;2023-08-12T00:51:44;100522.75;;;20.01;100.00
22605;BME280;11469;49.024;8.246;2023-08-12T00:54:13;100520.25;;;20.07;100.00
22605;BME280;11469;49.024;8.246;2023-08-12T00:56:39;100521.06;;;20.07;100.00
22605;BME280;11469;49.024;8.246;2023-08-12T00:59:07;100527.94;;;20.10;100.00
22605;BME280;11469;49.024;8.246;2023-08-12T01:01:34;100521.03;;;20.11;100.00
22605;BME280;11469;49.024;8.246;2023-08-12T01:04:00;100522.22;;;20.13;100.00
22605;BME280;11469;49.024;8.246;2023-08-12T01:06:25;100520.19;;;20.14;100.00
22605;BME280;11469;49.024;8.246;2023-08-12T01:08:51;100527.50;;;20.15;100.00
22605;BME280;11469;49.024;8.246;2023-08-12T01:11:21;100525.44;;;20.15;100.00
22605;BME280;11469;49.024;8.246;2023-08-12T01:16:22;100530.28;;;20.18;100.00
22605;BME280;11469;49.024;8.246;2023-08-12T01:18:49;100527.88;;;20.17;100.00
22605;BME280;11469;49.024;8.246;2023-08-12T01:21:17;100527.06;;;20.16;100.00
22605;BME280;11469;49.024;8.246;2023-08-12T01:23:43;100522.22;;;20.13;100.00
22605;BME280;11469;49.024;8.246;2023-08-12T01:26:09;100520.59;;;20.12;100.00
22605;BME280;11469;49.024;8.246;2023-08-12T01:28:35;100529.53;;;20.14;100.00
22605;BME280;11469;49.024;8.246;2023-08-12T01:31:19;100531.94;;;20.16;100.00
22605;BME280;11469;49.024;8.246;2023-08-12T01:33:56;100525.84;;;20.17;100.00
22605;BME280;11469;49.024;8.246;2023-08-12T01:36:24;100520.56;;;20.16;100.00
22605;BME280;11469;49.024;8.246;2023-08-12T01:38:52;100523.03;;;20.14;100.00
22605;BME280;11469;49.024;8.246;2023-08-12T01:41:21;100529.09;;;20.16;100.00
22605;BME280;11469;49.024;8.246;2023-08-12T01:43:48;100531.25;;;20.05;100.00
22605;BME280;11469;49.024;8.246;2023-08-12T01:46:13;100534.94;;;20.02;100.00
22605;BME280;11469;49.024;8.246;2023-08-12T01:48:39;100534.47;;;20.07;100.00
22605;BME280;11469;49.024;8.246;2023-08-12T01:51:05;100540.22;;;20.03;100.00
22605;BME280;11469;49.024;8.246;2023-08-12T01:53:31;100547.50;;;20.04;100.00
22605;BME280;11469;49.024;8.246;2023-08-12T01:55:56;100541.81;;;20.04;100.00
22605;BME280;11469;49.024;8.246;2023-08-12T01:58:21;100538.97;;;20.04;100.00
22605;BME280;11469;49.024;8.246;2023-08-12T02:00:47;100530.06;;;20.02;100.00
22605;BME280;11469;49.024;8.246;2023-08-12T02:03:12;100530.88;;;20.03;100.00
22605;BME280;11469;49.024;8.246;2023-08-12T02:05:38;100534.91;;;20.05;100.00
22605;BME280;11469;49.024;8.246;2023-08-12T02:08:04;100528.28;;;20.15;100.00
22605;BME280;11469;49.024;8.246;2023-08-12T02:10:30;100529.91;;;20.16;100.00
22605;BME280;11469;49.024;8.246;2023-08-12T02:12:55;100531.56;;;20.14;100.00
22605;BME280;11469;49.024;8.246;2023-08-12T02:15:20;100519.34;;;20.17;100.00
22605;BME280;11469;49.024;8.246;2023-08-12T02:17:46;100518.44;;;20.24;100.00
22605;BME280;11469;49.024;8.246;2023-08-12T02:20:11;100511.09;;;20.26;100.00
22605;BME280;11469;49.024;8.246;2023-08-12T02:22:37;100517.19;;;20.28;100.00
22605;BME280;11469;49.024;8.246;2023-08-12T02:25:02;100528.94;;;20.30;100.00
22605;BME280;11469;49.024;8.246;2023-08-12T02:27:28;100542.75;;;20.32;100.00
22605;BME280;11469;49.024;8.246;2023-08-12T02:29:53;100543.91;;;20.34;100.00
22605;BME280;11469;49.024;8.246;2023-08-12T02:32:19;100545.94;;;20.34;100.00
22605;BME280;11469;49.024;8.246;2023-08-12T02:34:44;100555.72;;;20.33;100.00
22605;BME280;11469;49.024;8.246;2023-08-12T02:37:09;100554.47;;;20.34;100.00
22605;BME280;11469;49.024;8.246;2023-08-12T02:39:35;100560.25;;;20.30;100.00
22605;BME280;11469;49.024;8.246;2023-08-12T02:42:00;100544.47;;;20.22;100.00
22605;BME280;11469;49.024;8.246;2023-08-12T02:44:26;100540.09;;;20.14;100.00
22605;BME280;11469;49.024;8.246;2023-08-12T02:46:51;100525.53;;;20.08;100.00
22605;BME280;11469;49.024;8.246;2023-08-12T02:49:16;100525.53;;;20.08;100.00
22605;BME280;11469;49.024;8.246;2023-08-12T02:51:42;100517.38;;;20.10;100.00
22605;BME280;11469;49.024;8.246;2023-08-12T02:54:07;100518.50;;;20.20;100.00
22605;BME280;11469;49.024;8.246;2023-08-12T02:56:32;100513.19;;;20.22;100.00
22605;BME280;11469;49.024;8.246;2023-08-12T02:58:58;100508.69;;;20.25;100.00
22605;BME280;11469;49.024;8.246;2023-08-12T03:01:23;100514.31;;;20.28;100.00
22605;BME280;11469;49.024;8.246;2023-08-12T03:03:50;100506.59;;;20.29;100.00
22605;BME280;11469;49.024;8.246;2023-08-12T03:06:15;100500.78;;;20.39;100.00
22605;BME280;11469;49.024;8.246;2023-08-12T03:08:41;100484.94;;;20.35;100.00
22605;BME280;11469;49.024;8.246;2023-08-12T03:11:06;100488.59;;;20.35;100.00
22605;BME280;11469;49.024;8.246;2023-08-12T03:13:31;100492.25;;;20.36;100.00
22605;BME280;11469;49.024;8.246;2023-08-12T03:15:57;100486.56;;;20.36;100.00
22605;BME280;11469;49.024;8.246;2023-08-12T03:18:23;100491.03;;;20.37;100.00
22605;BME280;11469;49.024;8.246;2023-08-12T03:20:48;100493.03;;;20.40;100.00
22605;BME280;11469;49.024;8.246;2023-08-12T03:23:14;100502.38;;;20.40;100.00
22605;BME280;11469;49.024;8.246;2023-08-12T03:25:39;100502.38;;;20.40;100.00
22605;BME280;11469;49.024;8.246;2023-08-12T03:28:05;100501.97;;;20.42;100.00
22605;BME280;11469;49.024;8.246;2023-08-12T03:30:30;100498.72;;;20.40;100.00
22605;BME280;11469;49.024;8.246;2023-08-12T03:32:56;100497.13;;;20.39;100.00
22605;BME280;11469;49.024;8.246;2023-08-12T03:35:22;100492.66;;;20.38;100.00
22605;BME280;11469;49.024;8.246;2023-08-12T03:37:47;100483.72;;;20.36;100.00
22605;BME280;11469;49.024;8.246;2023-08-12T03:40:13;100483.28;;;20.37;100.00
22605;BME280;11469;49.024;8.246;2023-08-12T03:42:38;100476.78;;;20.37;100.00
22605;BME280;11469;49.024;8.246;2023-08-12T03:45:04;100483.28;;;20.37;100.00
22605;BME280;11469;49.024;8.246;2023-08-12T03:47:29;100487.34;;;20.40;100.00
22605;BME280;11469;49.024;8.246;2023-08-12T03:49:55;100488.16;;;20.40;100.00
22605;BME280;11469;49.024;8.246;2023-08-12T03:52:20;100486.91;;;20.41;100.00
22605;BME280;11469;49.024;8.246;2023-08-12T03:54:45;100485.69;;;20.42;100.00
22605;BME280;11469;49.024;8.246;2023-08-12T03:57:11;100493.00;;;20.43;100.00
22605;BME280;11469;49.024;8.246;2023-08-12T03:59:37;100497.03;;;20.46;100.00
22605;BME280;11469;49.024;8.246;2023-08-12T04:02:02;100497.41;;;20.48;100.00
22605;BME280;11469;49.024;8.246;2023-08-12T04:04:29;100490.50;;;20.49;100.00
22605;BME280;11469;49.024;8.246;2023-08-12T04:06:54;100502.25;;;20.51;100.00
22605;BME280;11469;49.024;8.246;2023-08-12T04:09:20;100505.09;;;20.51;100.00
22605;BME280;11469;49.024;8.246;2023-08-12T04:11:46;100497.78;;;20.50;100.00
22605;BME280;11469;49.024;8.246;2023-08-12T04:14:14;100505.91;;;20.51;100.00
22605;BME280;11469;49.024;8.246;2023-08-12T04:16:40;100499.78;;;20.53;100.00
22605;BME280;11469;49.024;8.246;2023-08-12T04:19:05;100498.94;;;20.56;100.00
22605;BME280;11469;49.024;8.246;2023-08-12T04:21:31;100504.19;;;20.58;100.00
22605;BME280;11469;49.024;8.246;2023-08-12T04:23:56;100492.75;;;20.61;100.00
22605;BME280;11469;49.024;8.246;2023-08-12T04:26:22;100499.25;;;20.62;100.00
22605;BME280;11469;49.024;8.246;2023-08-12T04:28:47;100498.84;;;20.63;100.00
22605;BME280;11469;49.024;8.246;2023-08-12T04:31:12;100497.66;;;20.61;100.00
22605;BME280;11469;49.024;8.246;2023-08-12T04:33:38;100509.84;;;20.61;100.00
22605;BME280;11469;49.024;8.246;2023-08-12T04:36:03;100511.84;;;20.64;100.00
22605;BME280;11469;49.024;8.246;2023-08-12T04:38:29;100508.63;;;20.62;100.00
22605;BME280;11469;49.024;8.246;2023-08-12T04:40:56;100513.06;;;20.63;100.00
22605;BME280;11469;49.024;8.246;2023-08-12T04:43:21;100501.69;;;20.63;100.00
22605;BME280;11469;49.024;8.246;2023-08-12T04:45:47;100499.59;;;20.67;100.00
22605;BME280;11469;49.024;8.246;2023-08-12T04:48:13;100504.47;;;20.67;100.00
22605;BME280;11469;49.024;8.246;2023-08-12T04:50:38;100489.78;;;20.72;100.00
22605;BME280;11469;49.024;8.246;2023-08-12T04:53:07;100496.22;;;20.76;100.00
22605;BME280;11469;49.024;8.246;2023-08-12T04:55:33;100494.19;;;20.76;100.00
22605;BME280;11469;49.024;8.246;2023-08-12T04:57:59;100492.19;;;20.73;100.00
22605;BME280;11469;49.024;8.246;2023-08-12T05:00:25;100480.78;;;20.73;100.00
22605;BME280;11469;49.024;8.246;2023-08-12T05:02:51;100488.53;;;20.73;100.00
22605;BME280;11469;49.024;8.246;2023-08-12T05:05:16;100482.78;;;20.76;100.00
22605;BME280;11469;49.024;8.246;2023-08-12T05:07:41;100473.91;;;20.98;100.00
22605;BME280;11469;49.024;8.246;2023-08-12T05:10:07;100462.13;;;20.96;100.00
22605;BME280;11469;49.024;8.246;2023-08-12T05:12:32;100468.69;;;20.93;100.00
22605;BME280;11469;49.024;8.246;2023-08-12T05:14:58;100471.53;;;20.93;100.00
22605;BME280;11469;49.024;8.246;2023-08-12T05:17:23;100473.53;;;20.96;100.00
22605;BME280;11469;49.024;8.246;2023-08-12T05:19:49;100479.09;;;21.03;100.00
22605;BME280;11469;49.024;8.246;2023-08-12T05:22:15;100475.72;;;21.11;100.00
22605;BME280;11469;49.024;8.246;2023-08-12T05:24:41;100485.38;;;21.17;100.00
22605;BME280;11469;49.024;8.246;2023-08-12T05:27:06;100493.41;;;21.26;100.00
22605;BME280;11469;49.024;8.246;2023-08-12T05:29:31;100491.66;;;21.32;100.00
22605;BME280;11469;49.024;8.246;2023-08-12T05:31:57;100490.78;;;21.35;100.00
22605;BME280;11469;49.024;8.246;2023-08-12T05:34:22;100500.16;;;21.36;100.00
22605;BME280;11469;49.024;8.246;2023-08-12T05:36:48;100505.84;;;21.36;100.00
22605;BME280;11469;49.024;8.246;2023-08-12T05:39:13;100510.00;;;21.31;100.00
22605;BME280;11469;49.024;8.246;2023-08-12T05:41:40;100505.53;;;21.30;100.00
22605;BME280;11469;49.024;8.246;2023-08-12T05:44:05;100498.66;;;21.28;100.00
22605;BME280;11469;49.024;8.246;2023-08-12T05:46:31;100491.72;;;21.29;100.00
22605;BME280;11469;49.024;8.246;2023-08-12T05:48:56;100501.03;;;21.33;100.00
22605;BME280;11469;49.024;8.246;2023-08-12T05:51:22;100506.41;;;21.50;100.00
22605;BME280;11469;49.024;8.246;2023-08-12T05:53:48;100505.50;;;21.57;100.00
22605;BME280;11469;49.024;8.246;2023-08-12T05:56:13;100497.63;;;21.65;100.00
22605;BME280;11469;49.024;8.246;2023-08-12T05:58:39;100496.31;;;21.89;100.00
22605;BME280;11469;49.024;8.246;2023-08-12T06:01:04;100494.78;;;22.08;100.00
22605;BME280;11469;49.024;8.246;2023-08-12T06:03:29;100497.78;;;22.21;100.00
22605;BME280;11469;49.024;8.246;2023-08-12T06:05:55;100503.75;;;22.26;100.00
22605;BME280;11469;49.024;8.246;2023-08-12T06:08:20;100502.94;;;22.26;100.00
22605;BME280;11469;49.024;8.246;2023-08-12T06:10:46;100516.06;;;22.23;100.00
22605;BME280;11469;49.024;8.246;2023-08-12T06:13:11;100509.19;;;22.21;100.00
22605;BME280;11469;49.024;8.246;2023-08-12T06:15:36;100499.66;;;22.27;100.00
22605;BME280;11469;49.024;8.246;2023-08-12T06:18:02;100504.34;;;22.37;100.00
22605;BME280;11469;49.024;8.246;2023-08-12T06:20:28;100494.75;;;22.47;100.00
22605;BME280;11469;49.024;8.246;2023-08-12T06:22:53;100498.25;;;22.55;99.46
22605;BME280;11469;49.024;8.246;2023-08-12T06:25:19;100499.78;;;22.60;98.99
22605;BME280;11469;49.024;8.246;2023-08-12T06:27:45;100512.66;;;22.68;98.99
22605;BME280;11469;49.024;8.246;2023-08-12T06:30:12;100511.88;;;22.67;98.66
22605;BME280;11469;49.024;8.246;2023-08-12T06:32:37;100502.75;;;22.72;99.08
22605;BME280;11469;49.024;8.246;2023-08-12T06:35:03;100503.44;;;22.80;98.53
22605;BME280;11469;49.024;8.246;2023-08-12T06:37:29;100516.03;;;22.82;97.79
22605;BME280;11469;49.024;8.246;2023-08-12T06:39:54;100514.31;;;22.85;97.68
22605;BME280;11469;49.024;8.246;2023-08-12T06:42:21;100512.28;;;22.86;97.47
22605;BME280;11469;49.024;8.246;2023-08-12T06:44:54;100512.13;;;22.93;97.47
22605;BME280;11469;49.024;8.246;2023-08-12T06:47:19;100499.63;;;23.03;97.36
22605;BME280;11469;49.024;8.246;2023-08-12T06:49:44;100494.81;;;23.48;96.87
22605;BME280;11469;49.024;8.246;2023-08-12T06:52:10;100504.41;;;24.16;93.85
22605;BME280;11469;49.024;8.246;2023-08-12T06:54:35;100501.81;;;24.63;90.64
22605;BME280;11469;49.024;8.246;2023-08-12T06:57:00;100502.81;;;24.44;87.08
22605;BME280;11469;49.024;8.246;2023-08-12T06:59:26;100500.50;;;24.39;87.02
22605;BME280;11469;49.024;8.246;2023-08-12T07:01:51;100495.00;;;24.32;88.40
22605;BME280;11469;49.024;8.246;2023-08-12T07:04:17;100489.75;;;24.14;88.30
22605;BME280;11469;49.024;8.246;2023-08-12T07:06:42;100489.63;;;24.05;89.44
22605;BME280;11469;49.024;8.246;2023-08-12T07:09:07;100483.66;;;23.99;89.74
22605;BME280;11469;49.024;8.246;2023-08-12T07:11:33;100490.66;;;24.11;90.66
22605;BME280;11469;49.024;8.246;2023-08-12T07:13:58;100497.16;;;24.28;90.06
22605;BME280;11469;49.024;8.246;2023-08-12T07:16:24;100499.72;;;24.38;88.80
22605;BME280;11469;49.024;8.246;2023-08-12T07:18:49;100509.59;;;24.63;88.37
22605;BME280;11469;49.024;8.246;2023-08-12T07:21:14;100503.78;;;24.79;88.13
22605;BME280;11469;49.024;8.246;2023-08-12T07:23:40;100502.88;;;24.95;86.78
22605;BME280;11469;49.024;8.246;2023-08-12T07:26:05;100505.31;;;24.96;87.16
22605;BME280;11469;49.024;8.246;2023-08-12T07:28:30;100497.59;;;25.19;85.65
22605;BME280;11469;49.024;8.246;2023-08-12T07:30:56;100494.28;;;25.33;84.31
22605;BME280;11469;49.024;8.246;2023-08-12T07:33:21;100494.84;;;25.40;84.39
22605;BME280;11469;49.024;8.246;2023-08-12T07:35:47;100491.47;;;25.55;84.37
22605;BME280;11469;49.024;8.246;2023-08-12T07:38:12;100491.63;;;25.51;83.41
22605;BME280;11469;49.024;8.246;2023-08-12T07:40:37;100499.53;;;25.47;89.39
22605;BME280;11469;49.024;8.246;2023-08-12T07:43:03;100505.06;;;25.41;88.92
22605;BME280;11469;49.024;8.246;2023-08-12T07:45:29;100505.06;;;25.29;89.57
22605;BME280;11469;49.024;8.246;2023-08-12T07:47:54;100506.44;;;25.24;91.95
22605;BME280;11469;49.024;8.246;2023-08-12T07:50:19;100489.81;;;25.19;92.56
22605;BME280;11469;49.024;8.246;2023-08-12T07:52:45;100485.69;;;25.20;91.10
22605;BME280;11469;49.024;8.246;2023-08-12T07:55:11;100490.81;;;25.38;90.49
22605;BME280;11469;49.024;8.246;2023-08-12T07:57:37;100493.25;;;25.39;89.17
22605;BME280;11469;49.024;8.246;2023-08-12T08:00:03;100503.00;;;25.29;88.11
22605;BME280;11469;49.024;8.246;2023-08-12T08:02:29;100491.06;;;25.18;88.40
22605;BME280;11469;49.024;8.246;2023-08-12T08:04:54;100485.47;;;25.02;86.96
22605;BME280;11469;49.024;8.246;2023-08-12T08:07:19;100486.13;;;24.93;88.31
22605;BME280;11469;49.024;8.246;2023-08-12T08:09:45;100477.88;;;25.08;87.95
22605;BME280;11469;49.024;8.246;2023-08-12T08:12:10;100483.50;;;25.24;87.07
22605;BME280;11469;49.024;8.246;2023-08-12T08:14:36;100489.56;;;25.26;86.93
22605;BME280;11469;49.024;8.246;2023-08-12T08:17:02;100489.09;;;25.40;86.70
22605;BME280;11469;49.024;8.246;2023-08-12T08:19:28;100483.03;;;25.38;85.49
22605;BME280;11469;49.024;8.246;2023-08-12T08:21:53;100478.22;;;25.35;84.87
22605;BME280;11469;49.024;8.246;2023-08-12T08:24:19;100485.88;;;25.51;86.14
22605;BME280;11469;49.024;8.246;2023-08-12T08:26:44;100486.88;;;25.57;84.28
22605;BME280;11469;49.024;8.246;2023-08-12T08:29:13;100483.88;;;25.73;84.63
22605;BME280;11469;49.024;8.246;2023-08-12T08:31:39;100483.38;;;25.88;84.61
22605;BME280;11469;49.024;8.246;2023-08-12T08:34:04;100488.09;;;26.03;83.46
22605;BME280;11469;49.024;8.246;2023-08-12T08:36:30;100483.72;;;25.90;83.20
22605;BME280;11469;49.024;8.246;2023-08-12T08:38:56;100475.31;;;25.95;82.61
22605;BME280;11469;49.024;8.246;2023-08-12T08:41:21;100481.16;;;26.13;82.62
22605;BME280;11469;49.024;8.246;2023-08-12T08:43:48;100467.63;;;26.36;82.04
22605;BME280;11469;49.024;8.246;2023-08-12T08:46:16;100471.22;;;26.27;80.44
22605;BME280;11469;49.024;8.246;2023-08-12T08:48:43;100470.66;;;26.32;80.90
22605;BME280;11469;49.024;8.246;2023-08-12T08:51:10;100474.00;;;26.31;80.74
22605;BME280;11469;49.024;8.246;2023-08-12T08:53:37;100470.88;;;26.25;81.97
22605;BME280;11469;49.024;8.246;2023-08-12T08:56:05;100473.72;;;26.38;81.39
22605;BME280;11469;49.024;8.246;2023-08-12T08:58:31;100465.25;;;26.65;81.32
22605;BME280;11469;49.024;8.246;2023-08-12T09:00:57;100472.22;;;26.95;79.88
22605;BME280;11469;49.024;8.246;2023-08-12T09:03:22;100469.44;;;27.04;79.19
22605;BME280;11469;49.024;8.246;2023-08-12T09:05:48;100470.56;;;27.07;77.87
22605;BME280;11469;49.024;8.246;2023-08-12T09:08:14;100469.50;;;27.23;78.49
22605;BME280;11469;49.024;8.246;2023-08-12T09:10:40;100469.81;;;27.25;74.77
22605;BME280;11469;49.024;8.246;2023-08-12T09:13:07;100473.38;;;27.38;75.05
22605;BME280;11469;49.024;8.246;2023-08-12T09:15:33;100465.78;;;27.71;75.01
22605;BME280;11469;49.024;8.246;2023-08-12T09:17:59;100469.75;;;28.01;73.54
22605;BME280;11469;49.024;8.246;2023-08-12T09:20:24;100468.44;;;27.57;71.81
22605;BME280;11469;49.024;8.246;2023-08-12T09:23:00;100461.16;;;27.83;71.70
22605;BME280;11469;49.024;8.246;2023-08-12T09:25:29;100456.31;;;28.17;71.67
22605;BME280;11469;49.024;8.246;2023-08-12T09:27:55;100465.38;;;28.61;70.47
22605;BME280;11469;49.024;8.246;2023-08-12T09:30:21;100474.28;;;28.81;69.38
22605;BME280;11469;49.024;8.246;2023-08-12T09:33:01;100476.06;;;28.79;69.01
22605;BME280;11469;49.024;8.246;2023-08-12T09:35:40;100480.69;;;28.76;68.95
22605;BME280;11469;49.024;8.246;2023-08-12T09:38:11;100481.50;;;28.77;69.49
22605;BME280;11469;49.024;8.246;2023-08-12T09:40:37;100487.28;;;28.77;66.97
22605;BME280;11469;49.024;8.246;2023-08-12T09:43:03;100489.19;;;28.80;68.48
22605;BME280;11469;49.024;8.246;2023-08-12T09:45:29;100477.50;;;28.74;67.94
22605;BME280;11469;49.024;8.246;2023-08-12T09:47:55;100478.19;;;28.60;68.03
22605;BME280;11469;49.024;8.246;2023-08-12T09:50:24;100470.66;;;28.62;68.25
22605;BME280;11469;49.024;8.246;2023-08-12T09:52:51;100476.03;;;28.88;68.01
22605;BME280;11469;49.024;8.246;2023-08-12T09:55:19;100478.97;;;29.12;67.47
22605;BME280;11469;49.024;8.246;2023-08-12T09:57:48;100477.88;;;29.09;66.36
22605;BME280;11469;49.024;8.246;2023-08-12T10:00:14;100473.28;;;28.93;67.40
22605;BME280;11469;49.024;8.246;2023-08-12T10:02:48;100475.69;;;28.95;67.08
22605;BME280;11469;49.024;8.246;2023-08-12T10:05:32;100455.72;;;29.15;67.49
22605;BME280;11469;49.024;8.246;2023-08-12T10:07:58;100468.53;;;29.14;66.45
22605;BME280;11469;49.024;8.246;2023-08-12T10:10:27;100468.91;;;29.07;66.13
22605;BME280;11469;49.024;8.246;2023-08-12T10:12:53;100470.94;;;29.16;66.47
22605;BME280;11469;49.024;8.246;2023-08-12T10:15:21;100467.69;;;29.23;65.27
22605;BME280;11469;49.024;8.246;2023-08-12T10:17:48;100469.03;;;29.46;64.49
22605;BME280;11469;49.024;8.246;2023-08-12T10:20:20;100454.91;;;29.48;63.37
22605;BME280;11469;49.024;8.246;2023-08-12T10:22:47;100455.94;;;29.59;63.20
22605;BME280;11469;49.024;8.246;2023-08-12T10:25:14;100460.56;;;29.81;61.13
22605;BME280;11469;49.024;8.246;2023-08-12T10:27:40;100467.16;;;29.81;61.14
22605;BME280;11469;49.024;8.246;2023-08-12T10:30:07;100474.91;;;29.75;62.02
22605;BME280;11469;49.024;8.246;2023-08-12T10:32:36;100483.97;;;29.68;61.92
22605;BME280;11469;49.024;8.246;2023-08-12T10:35:03;100501.75;;;29.43;61.93
22605;BME280;11469;49.024;8.246;2023-08-12T10:37:32;100516.16;;;29.10;63.47
22605;BME280;11469;49.024;8.246;2023-08-12T10:39:59;100526.53;;;28.74;65.65
22605;BME280;11469;49.024;8.246;2023-08-12T10:42:40;100514.28;;;28.28;65.15
22605;BME280;11469;49.024;8.246;2023-08-12T10:45:08;100500.31;;;27.99;66.13
22605;BME280;11469;49.024;8.246;2023-08-12T10:47:39;100509.44;;;27.79;71.14
22605;BME280;11469;49.024;8.246;2023-08-12T10:50:05;100511.25;;;27.46;78.01
22605;BME280;11469;49.024;8.246;2023-08-12T10:52:32;100490.72;;;27.16;80.29
22605;BME280;11469;49.024;8.246;2023-08-12T10:55:31;100501.72;;;26.77;85.81
22605;BME280;11469;49.024;8.246;2023-08-12T10:58:08;100490.75;;;26.32;87.05
22605;BME280;11469;49.024;8.246;2023-08-12T11:00:35;100478.63;;;26.16;90.58
22605;BME280;11469;49.024;8.246;2023-08-12T11:03:05;100485.22;;;26.03;94.86
22605;BME280;11469;49.024;8.246;2023-08-12T11:05:38;100492.91;;;25.85;95.96
22605;BME280;11469;49.024;8.246;2023-08-12T11:08:05;100504.75;;;25.74;96.52
22605;BME280;11469;49.024;8.246;2023-08-12T11:10:33;100504.31;;;25.63;100.00
22605;BME280;11469;49.024;8.246;2023-08-12T11:12:59;100510.91;;;25.51;100.00
22605;BME280;11469;49.024;8.246;2023-08-12T11:17:55;100529.22;;;25.53;100.00
22605;BME280;11469;49.024;8.246;2023-08-12T11:20:21;100514.09;;;25.65;100.00
22605;BME280;11469;49.024;8.246;2023-08-12T11:22:47;100505.81;;;25.67;100.00
22605;BME280;11469;49.024;8.246;2023-08-12T11:25:14;100506.66;;;25.90;100.00
22605;BME280;11469;49.024;8.246;2023-08-12T11:27:41;100500.25;;;26.07;100.00
22605;BME280;11469;49.024;8.246;2023-08-12T11:30:08;100505.78;;;26.02;96.80
22605;BME280;11469;49.024;8.246;2023-08-12T11:32:36;100512.97;;;25.97;98.80
22605;BME280;11469;49.024;8.246;2023-08-12T11:35:02;100503.81;;;25.90;99.89
22605;BME280;11469;49.024;8.246;2023-08-12T11:37:29;100495.88;;;25.94;98.46
22605;BME280;11469;49.024;8.246;2023-08-12T11:39:54;100490.72;;;26.10;97.62
22605;BME280;11469;49.024;8.246;2023-08-12T11:42:20;100493.13;;;26.12;92.81
22605;BME280;11469;49.024;8.246;2023-08-12T11:44:45;100490.13;;;26.16;95.83
22605;BME280;11469;49.024;8.246;2023-08-12T11:47:11;100491.28;;;26.40;96.39
22605;BME280;11469;49.024;8.246;2023-08-12T11:49:36;100487.25;;;26.59;94.56
22605;BME280;11469;49.024;8.246;2023-08-12T11:52:02;100488.91;;;26.69;93.97
22605;BME280;11469;49.024;8.246;2023-08-12T11:54:28;100484.47;;;26.77;92.37
22605;BME280;11469;49.024;8.246;2023-08-12T11:56:54;100484.19;;;26.85;89.46
22605;BME280;11469;49.024;8.246;2023-08-12T11:59:22;100468.78;;;27.00;90.60
22605;BME280;11469;49.024;8.246;2023-08-12T12:01:51;100474.88;;;27.12;88.55
22605;BME280;11469;49.024;8.246;2023-08-12T12:04:16;100481.16;;;27.19;86.12
22605;BME280;11469;49.024;8.246;2023-08-12T12:06:46;100477.50;;;27.28;87.07
22605;BME280;11469;49.024;8.246;2023-08-12T12:09:12;100476.22;;;27.29;86.20
22605;BME280;11469;49.024;8.246;2023-08-12T12:11:39;100481.69;;;27.54;88.76
22605;BME280;11469;49.024;8.246;2023-08-12T12:14:07;100474.09;;;27.79;86.63
22605;BME280;11469;49.024;8.246;2023-08-12T12:16:47;100471.38;;;27.84;81.70
22605;BME280;11469;49.024;8.246;2023-08-12T12:19:23;100474.25;;;28.02;83.58
22605;BME280;11469;49.024;8.246;2023-08-12T12:21:50;100469.75;;;28.01;82.29
22605;BME280;11469;49.024;8.246;2023-08-12T12:24:17;100471.34;;;28.12;82.14
22605;BME280;11469;49.024;8.246;2023-08-12T12:26:43;100472.47;;;28.05;81.73
22605;BME280;11469;49.024;8.246;2023-08-12T12:29:09;100476.00;;;28.00;83.94
22605;BME280;11469;49.024;8.246;2023-08-12T12:31:37;100472.00;;;28.16;83.76
22605;BME280;11469;49.024;8.246;2023-08-12T12:34:03;100465.28;;;28.28;82.39
22605;BME280;11469;49.024;8.246;2023-08-12T12:36:30;100472.97;;;28.13;82.96
22605;BME280;11469;49.024;8.246;2023-08-12T12:38:56;100481.63;;;28.22;81.98
22605;BME280;11469;49.024;8.246;2023-08-12T12:41:21;100476.78;;;28.37;82.81
22605;BME280;11469;49.024;8.246;2023-08-12T12:43:46;100472.25;;;28.63;80.34
22605;BME280;11469;49.024;8.246;2023-08-12T12:46:12;100475.09;;;28.72;77.71